Time;durP1;ratioP1;P1;durP2;ratioP2;P2;SDS_P1;SDS_P2;PMS_P1;PMS_P2;Temp;Humidity;BMP_temperature;BMP_pressure;BME280_temperature;BME280_humidity;BME280_pressure;Samples;Min_cycle;Max_cycle;Signal;HPM_P1;HPM_P2
2023/04/01 00:02:04;;;;;;;10.13;7.38;;;;;;;;;;5086341;28;20040;-76
2023/04/01 00:04:30;;;;;;;9.73;7.32;;;;;;;;;;5074879;28;20044;-74
2023/04/01 00:06:56;;;;;;;11.18;7.75;;;;;;;;;;5086683;28;20048;-75
2023/04/01 00:09:22;;;;;;;11.68;7.47;;;;;;;;;;5074574;28;20106;-75
2023/04/01 00:11:48;;;;;;;12.32;7.47;;;;;;;;;;5083526;28;20055;-76
2023/04/01 00:14:14;;;;;;;12.80;7.65;;;;;;;;;;5092910;28;20513;-75
2023/04/01 00:16:41;;;;;;;10.43;7.88;;;;;;;;;;5086724;28;20048;-75
2023/04/01 00:19:07;;;;;;;12.32;7.95;;;;;;;;;;5082700;28;20098;-75
2023/04/01 00:21:33;;;;;;;11.50;7.75;;;;;;;;;;5093923;28;20090;-75
2023/04/01 00:24:00;;;;;;;12.10;7.43;;;;;;;;;;5093691;28;20035;-74
2023/04/01 00:26:26;;;;;;;12.10;8.38;;;;;;;;;;5093564;28;20494;-74
2023/04/01 00:28:52;;;;;;;11.45;7.60;;;;;;;;;;5083809;28;20041;-74
2023/04/01 00:31:19;;;;;;;12.32;8.45;;;;;;;;;;5079128;28;20032;-74
2023/04/01 00:33:45;;;;;;;10.13;7.88;;;;;;;;;;5094696;28;20072;-74
2023/04/01 00:36:13;;;;;;;10.77;7.93;;;;;;;;;;5092192;28;20061;-75
2023/04/01 00:38:40;;;;;;;12.52;8.13;;;;;;;;;;5094187;28;20050;-75
2023/04/01 00:41:07;;;;;;;11.20;7.82;;;;;;;;;;5093664;28;20048;-75
2023/04/01 00:43:33;;;;;;;12.18;8.68;;;;;;;;;;5089286;28;20040;-75
2023/04/01 00:45:59;;;;;;;10.93;7.95;;;;;;;;;;5078540;28;20040;-75
2023/04/01 00:48:28;;;;;;;11.23;7.95;;;;;;;;;;5091619;28;20048;-75
2023/04/01 00:51:00;;;;;;;11.85;8.48;;;;;;;;;;5093373;28;20558;-75
2023/04/01 00:53:26;;;;;;;12.85;8.30;;;;;;;;;;5092770;28;20085;-75
2023/04/01 00:56:12;;;;;;;12.75;8.38;;;;;;;;;;5071965;28;20040;-75
2023/04/01 00:58:40;;;;;;;11.88;8.40;;;;;;;;;;5073921;28;20040;-76
2023/04/01 01:01:06;;;;;;;11.45;8.15;;;;;;;;;;5076825;28;20051;-76
2023/04/01 01:03:32;;;;;;;12.93;8.95;;;;;;;;;;5094002;28;20152;-76
2023/04/01 01:06:04;;;;;;;12.18;8.63;;;;;;;;;;5087009;28;20278;-76
2023/04/01 01:08:36;;;;;;;14.57;9.52;;;;;;;;;;5093922;28;20054;-76
2023/04/01 01:11:03;;;;;;;12.18;8.95;;;;;;;;;;5089299;28;20044;-76
2023/04/01 01:13:55;;;;;;;14.60;9.50;;;;;;;;;;5074243;28;20051;-75
2023/04/01 01:16:21;;;;;;;15.68;9.23;;;;;;;;;;5084115;28;20055;-75
2023/04/01 01:18:57;;;;;;;14.10;9.85;;;;;;;;;;5092726;28;20043;-75
2023/04/01 01:21:42;;;;;;;13.98;9.57;;;;;;;;;;5093881;28;20127;-75
2023/04/01 01:24:08;;;;;;;15.20;10.32;;;;;;;;;;5089500;28;20120;-75
2023/04/01 01:26:40;;;;;;;16.30;10.13;;;;;;;;;;5082953;28;20170;-75
2023/04/01 01:29:16;;;;;;;14.55;10.13;;;;;;;;;;5093659;28;20035;-75
2023/04/01 01:31:52;;;;;;;15.48;10.82;;;;;;;;;;5092058;28;20044;-77
2023/04/01 01:34:18;;;;;;;15.10;10.07;;;;;;;;;;5074303;28;20040;-76
2023/04/01 01:36:45;;;;;;;15.02;9.77;;;;;;;;;;5071198;28;20293;-76
2023/04/01 01:39:12;;;;;;;16.60;10.35;;;;;;;;;;5067999;28;20041;-76
2023/04/01 01:41:40;;;;;;;15.63;9.82;;;;;;;;;;5067243;28;20103;-76
2023/04/01 01:44:07;;;;;;;16.27;9.25;;;;;;;;;;5081103;28;20137;-76
2023/04/01 01:46:33;;;;;;;14.38;9.38;;;;;;;;;;5074190;28;20049;-77
2023/04/01 01:49:00;;;;;;;12.55;8.95;;;;;;;;;;5072898;28;20450;-76
2023/04/01 01:51:28;;;;;;;14.48;9.88;;;;;;;;;;5078337;28;20085;-77
2023/04/01 01:53:54;;;;;;;15.85;10.13;;;;;;;;;;5091921;28;20090;-77
2023/04/01 01:56:22;;;;;;;16.48;10.48;;;;;;;;;;5080635;28;20130;-77
2023/04/01 01:58:52;;;;;;;14.43;9.73;;;;;;;;;;5076098;28;20076;-76
2023/04/01 02:01:21;;;;;;;14.65;10.13;;;;;;;;;;5096653;28;20121;-76
2023/04/01 02:03:47;;;;;;;12.82;9.35;;;;;;;;;;5097791;28;20052;-76
2023/04/01 02:06:16;;;;;;;12.85;9.50;;;;;;;;;;5089287;28;20099;-76
2023/04/01 02:08:45;;;;;;;14.30;9.85;;;;;;;;;;5097312;28;20044;-75
2023/04/01 02:11:13;;;;;;;13.77;9.32;;;;;;;;;;5096006;28;20559;-75
2023/04/01 02:13:39;;;;;;;13.90;9.63;;;;;;;;;;5097087;28;20374;-75
2023/04/01 02:16:07;;;;;;;12.88;9.70;;;;;;;;;;5095324;28;20127;-75
2023/04/01 02:18:35;;;;;;;14.02;8.93;;;;;;;;;;5096637;28;20059;-74
2023/04/01 02:21:02;;;;;;;15.02;9.75;;;;;;;;;;5093326;28;20044;-74
2023/04/01 02:23:29;;;;;;;13.25;9.43;;;;;;;;;;5095917;28;20048;-74
2023/04/01 02:25:55;;;;;;;12.82;8.95;;;;;;;;;;5088963;28;20044;-73
2023/04/01 02:28:22;;;;;;;14.63;9.52;;;;;;;;;;5077015;28;20044;-74
2023/04/01 02:30:50;;;;;;;14.35;9.55;;;;;;;;;;5084652;28;20156;-74
2023/04/01 02:33:17;;;;;;;13.43;9.25;;;;;;;;;;5076825;28;20053;-74
2023/04/01 02:35:43;;;;;;;13.55;9.52;;;;;;;;;;5075063;28;20051;-74
2023/04/01 02:38:09;;;;;;;14.98;9.77;;;;;;;;;;5076371;28;20044;-74
2023/04/01 02:40:42;;;;;;;13.27;9.15;;;;;;;;;;5076046;28;20047;-73
2023/04/01 02:43:08;;;;;;;14.68;9.75;;;;;;;;;;5076263;28;20471;-74
2023/04/01 02:45:34;;;;;;;14.32;9.38;;;;;;;;;;5076100;28;20048;-74
2023/04/01 02:48:00;;;;;;;13.27;8.93;;;;;;;;;;5089731;28;20046;-74
2023/04/01 02:50:27;;;;;;;13.63;8.90;;;;;;;;;;5081442;28;20131;-75
2023/04/01 02:52:53;;;;;;;12.70;8.40;;;;;;;;;;5076401;28;20128;-75
2023/04/01 02:55:19;;;;;;;14.23;8.32;;;;;;;;;;5091484;28;20040;-75
2023/04/01 02:57:45;;;;;;;11.73;7.50;;;;;;;;;;5096290;28;20123;-75
2023/04/01 03:00:11;;;;;;;9.38;6.68;;;;;;;;;;5095063;28;20115;-75
2023/04/01 03:02:38;;;;;;;8.25;6.28;;;;;;;;;;5096151;28;20436;-75
2023/04/01 03:05:05;;;;;;;9.30;6.50;;;;;;;;;;5080648;28;20125;-75
2023/04/01 03:07:32;;;;;;;10.13;5.65;;;;;;;;;;5076924;28;20074;-75
2023/04/01 03:09:58;;;;;;;9.48;6.85;;;;;;;;;;5080534;28;20165;-75
2023/04/01 03:12:24;;;;;;;10.38;6.95;;;;;;;;;;5075557;28;20564;-74
2023/04/01 03:14:50;;;;;;;12.32;8.02;;;;;;;;;;5090271;28;20056;-74
2023/04/01 03:17:16;;;;;;;12.32;8.48;;;;;;;;;;5095640;28;20505;-74
2023/04/01 03:19:42;;;;;;;14.23;9.00;;;;;;;;;;5095024;28;20051;-74
2023/04/01 03:22:10;;;;;;;18.17;10.30;;;;;;;;;;5094569;28;20464;-74
2023/04/01 03:24:36;;;;;;;20.33;11.05;;;;;;;;;;5091372;28;20401;-75
2023/04/01 03:27:02;;;;;;;19.52;10.93;;;;;;;;;;5094688;28;20447;-74
2023/04/01 03:29:28;;;;;;;20.27;11.93;;;;;;;;;;5084066;28;20351;-74
2023/04/01 03:31:57;;;;;;;20.38;11.88;;;;;;;;;;5084982;28;20119;-74
2023/04/01 03:34:23;;;;;;;20.13;11.68;;;;;;;;;;5075759;28;20445;-73
2023/04/01 03:36:50;;;;;;;20.98;12.23;;;;;;;;;;5075422;28;20063;-73
2023/04/01 03:39:18;;;;;;;23.25;11.82;;;;;;;;;;5094026;28;20044;-73
2023/04/01 03:41:45;;;;;;;20.35;12.48;;;;;;;;;;5094410;28;20097;-74
2023/04/01 03:44:11;;;;;;;22.20;12.60;;;;;;;;;;5094644;28;20093;-75
2023/04/01 03:46:38;;;;;;;22.83;12.57;;;;;;;;;;5086199;28;20054;-75
2023/04/01 03:49:11;;;;;;;24.13;12.65;;;;;;;;;;5080224;28;20107;-74
2023/04/01 03:51:37;;;;;;;22.70;12.30;;;;;;;;;;5080791;28;20060;-74
2023/04/01 03:54:03;;;;;;;22.70;12.93;;;;;;;;;;5086188;28;20037;-74
2023/04/01 03:56:29;;;;;;;23.35;13.95;;;;;;;;;;5096025;28;20044;-74
2023/04/01 03:58:55;;;;;;;24.73;13.48;;;;;;;;;;5094920;28;20097;-75
2023/04/01 04:01:22;;;;;;;22.00;12.95;;;;;;;;;;5093424;28;20162;-75
2023/04/01 04:03:49;;;;;;;26.10;14.50;;;;;;;;;;5084562;28;20040;-75
2023/04/01 04:06:16;;;;;;;22.85;13.25;;;;;;;;;;5093735;28;20089;-76
2023/04/01 04:08:42;;;;;;;23.83;13.43;;;;;;;;;;5094297;28;20047;-75
2023/04/01 04:11:08;;;;;;;24.63;14.10;;;;;;;;;;5094852;28;20054;-75
2023/04/01 04:13:35;;;;;;;22.67;13.57;;;;;;;;;;5090120;28;20113;-75
2023/04/01 04:16:02;;;;;;;26.73;14.40;;;;;;;;;;5094973;28;20151;-76
2023/04/01 04:18:28;;;;;;;24.13;13.77;;;;;;;;;;5093968;28;20050;-75
2023/04/01 04:20:54;;;;;;;25.65;14.07;;;;;;;;;;5092591;28;20082;-76
2023/04/01 04:23:20;;;;;;;25.30;15.18;;;;;;;;;;5089237;28;20045;-76
2023/04/01 04:26:04;;;;;;;27.40;14.90;;;;;;;;;;5091110;28;20097;-76
2023/04/01 04:28:30;;;;;;;24.40;13.27;;;;;;;;;;5094440;28;20502;-76
2023/04/01 04:30:56;;;;;;;23.70;14.02;;;;;;;;;;5085183;28;20041;-75
2023/04/01 04:33:23;;;;;;;26.58;14.65;;;;;;;;;;5073944;28;20056;-75
2023/04/01 04:35:49;;;;;;;24.45;13.98;;;;;;;;;;5073854;28;20427;-75
2023/04/01 04:38:15;;;;;;;24.20;13.85;;;;;;;;;;5074444;28;20103;-75
2023/04/01 04:40:42;;;;;;;23.30;13.35;;;;;;;;;;5087793;28;20040;-75
2023/04/01 04:43:10;;;;;;;23.52;13.32;;;;;;;;;;5093794;28;20123;-75
2023/04/01 04:45:36;;;;;;;25.75;12.77;;;;;;;;;;5093237;28;20068;-75
2023/04/01 04:48:02;;;;;;;19.88;12.93;;;;;;;;;;5094270;28;20040;-75
2023/04/01 04:50:28;;;;;;;22.42;12.70;;;;;;;;;;5093759;28;20044;-75
2023/04/01 04:52:54;;;;;;;25.15;13.85;;;;;;;;;;5093981;28;20044;-75
2023/04/01 04:55:21;;;;;;;22.67;13.07;;;;;;;;;;5089337;28;20049;-75
2023/04/01 04:57:47;;;;;;;24.48;13.82;;;;;;;;;;5093766;28;20113;-75
2023/04/01 05:00:13;;;;;;;26.52;14.70;;;;;;;;;;5093634;28;20118;-75
2023/04/01 05:02:39;;;;;;;25.98;14.48;;;;;;;;;;5074480;28;20073;-75
2023/04/01 05:05:06;;;;;;;25.98;14.73;;;;;;;;;;5094260;28;20122;-75
2023/04/01 05:07:32;;;;;;;26.60;14.85;;;;;;;;;;5077583;28;20041;-75
2023/04/01 05:09:58;;;;;;;27.52;15.98;;;;;;;;;;5077345;28;20123;-75
2023/04/01 05:12:24;;;;;;;28.08;15.20;;;;;;;;;;5093916;28;20140;-76
2023/04/01 05:14:50;;;;;;;29.48;15.80;;;;;;;;;;5092794;28;20059;-75
2023/04/01 05:17:16;;;;;;;25.83;14.65;;;;;;;;;;5092177;28;20221;-75
2023/04/01 05:19:42;;;;;;;28.42;16.45;;;;;;;;;;5093575;28;20071;-76
2023/04/01 05:22:08;;;;;;;28.65;16.25;;;;;;;;;;5085272;28;20036;-76
2023/04/01 05:24:34;;;;;;;28.77;16.60;;;;;;;;;;5089288;28;20052;-76
2023/04/01 05:27:01;;;;;;;30.40;16.10;;;;;;;;;;5093459;28;20040;-76
2023/04/01 05:29:27;;;;;;;31.45;16.15;;;;;;;;;;5088775;28;20516;-76
2023/04/01 05:31:53;;;;;;;30.50;17.08;;;;;;;;;;5089690;28;20044;-76
2023/04/01 05:34:19;;;;;;;29.02;15.70;;;;;;;;;;5079761;28;20043;-76
2023/04/01 05:36:45;;;;;;;32.65;15.85;;;;;;;;;;5077386;28;20128;-76
2023/04/01 05:39:11;;;;;;;24.08;13.95;;;;;;;;;;5082321;28;20489;-78
2023/04/01 05:41:38;;;;;;;28.27;14.52;;;;;;;;;;5098761;28;20262;-76
2023/04/01 05:44:04;;;;;;;28.08;14.43;;;;;;;;;;5096778;28;20036;-77
2023/04/01 05:46:30;;;;;;;28.08;14.23;;;;;;;;;;5090348;28;20052;-76
2023/04/01 05:48:56;;;;;;;25.67;13.07;;;;;;;;;;5077321;28;20048;-76
2023/04/01 05:51:22;;;;;;;24.80;12.32;;;;;;;;;;5076865;28;20041;-76
2023/04/01 05:53:49;;;;;;;22.48;12.10;;;;;;;;;;5077145;28;20133;-77
2023/04/01 05:56:15;;;;;;;20.85;11.02;;;;;;;;;;5077688;28;20044;-77
2023/04/01 05:58:41;;;;;;;23.90;11.70;;;;;;;;;;5094708;28;20466;-76
2023/04/01 06:01:09;;;;;;;23.38;12.15;;;;;;;;;;5094439;28;20045;-76
2023/04/01 06:03:35;;;;;;;22.40;11.23;;;;;;;;;;5095812;28;20071;-76
2023/04/01 06:06:01;;;;;;;25.42;12.60;;;;;;;;;;5097376;28;20044;-76
2023/04/01 06:08:28;;;;;;;26.15;13.07;;;;;;;;;;5085095;28;20050;-76
2023/04/01 06:10:54;;;;;;;30.52;14.70;;;;;;;;;;5083626;28;20428;-76
2023/04/01 06:13:20;;;;;;;33.67;16.38;;;;;;;;;;5079007;28;20040;-76
2023/04/01 06:15:54;;;;;;;34.15;16.73;;;;;;;;;;5082125;28;20706;-76
2023/04/01 06:18:26;;;;;;;37.50;18.02;;;;;;;;;;5085794;28;20043;-76
2023/04/01 06:20:55;;;;;;;31.60;16.23;;;;;;;;;;5083699;28;20120;-76
2023/04/01 06:23:36;;;;;;;32.97;17.40;;;;;;;;;;5084986;28;20040;-76
2023/04/01 06:26:11;;;;;;;37.35;18.02;;;;;;;;;;5096452;28;20040;-76
2023/04/01 06:28:41;;;;;;;41.00;18.10;;;;;;;;;;5095991;28;20055;-76
2023/04/01 06:31:20;;;;;;;33.97;17.95;;;;;;;;;;5079972;28;20047;-76
2023/04/01 06:33:55;;;;;;;36.65;18.05;;;;;;;;;;5094710;28;20046;-76
2023/04/01 06:36:24;;;;;;;39.50;18.02;;;;;;;;;;5096564;28;20040;-76
2023/04/01 06:38:56;;;;;;;37.47;17.92;;;;;;;;;;5094726;28;20452;-76
2023/04/01 06:41:30;;;;;;;38.60;17.52;;;;;;;;;;5083355;28;20041;-76
2023/04/01 06:43:56;;;;;;;35.90;17.50;;;;;;;;;;5075475;28;20052;-76
2023/04/01 06:46:28;;;;;;;33.95;16.33;;;;;;;;;;5075993;28;20090;-76
2023/04/01 06:49:01;;;;;;;40.33;16.85;;;;;;;;;;5085597;28;20508;-77
2023/04/01 06:51:33;;;;;;;41.10;16.98;;;;;;;;;;5093000;28;20045;-76
2023/04/01 06:54:08;;;;;;;36.38;17.33;;;;;;;;;;5080052;28;20044;-76
2023/04/01 06:56:35;;;;;;;34.13;16.47;;;;;;;;;;5099878;28;20036;-75
2023/04/01 06:59:05;;;;;;;46.83;18.30;;;;;;;;;;5097752;28;20115;-75
2023/04/01 07:01:47;;;;;;;45.42;17.90;;;;;;;;;;5080944;28;20040;-75
2023/04/01 07:04:34;;;;;;;41.83;17.75;;;;;;;;;;5076080;28;20061;-75
2023/04/01 07:07:02;;;;;;;31.58;15.25;;;;;;;;;;5090658;28;20421;-75
2023/04/01 07:09:40;;;;;;;37.60;15.70;;;;;;;;;;5093776;28;20100;-75
2023/04/01 07:12:26;;;;;;;35.75;15.63;;;;;;;;;;5086243;28;20056;-75
2023/04/01 07:14:54;;;;;;;42.90;16.38;;;;;;;;;;5064789;28;20041;-75
2023/04/01 07:17:26;;;;;;;37.28;14.43;;;;;;;;;;5091097;28;20044;-75
2023/04/01 07:20:11;;;;;;;36.05;15.60;;;;;;;;;;5095261;28;20355;-75
2023/04/01 07:22:46;;;;;;;42.50;16.70;;;;;;;;;;5085347;28;20055;-76
2023/04/01 07:25:25;;;;;;;40.00;15.73;;;;;;;;;;5085636;28;20039;-76
2023/04/01 07:27:53;;;;;;;35.05;14.77;;;;;;;;;;5086275;28;20040;-74
2023/04/01 07:30:21;;;;;;;33.28;14.95;;;;;;;;;;5084562;28;20051;-75
2023/04/01 07:32:52;;;;;;;35.60;14.57;;;;;;;;;;5092939;28;20047;-75
2023/04/01 07:35:31;;;;;;;31.85;14.57;;;;;;;;;;5077878;28;20044;-75
2023/04/01 07:38:10;;;;;;;24.30;11.63;;;;;;;;;;5082092;28;20099;-75
2023/04/01 07:40:36;;;;;;;17.35;9.30;;;;;;;;;;5057840;28;20048;-76
2023/04/01 07:43:14;;;;;;;17.52;8.95;;;;;;;;;;5077084;28;20060;-76
2023/04/01 07:45:43;;;;;;;23.13;8.00;;;;;;;;;;5095380;28;20051;-76
2023/04/01 07:48:29;;;;;;;11.25;5.85;;;;;;;;;;5090458;28;20037;-76
2023/04/01 07:51:02;;;;;;;11.70;5.80;;;;;;;;;;5083542;28;20040;-76
2023/04/01 07:53:28;;;;;;;12.45;5.25;;;;;;;;;;5088555;28;20070;-76
2023/04/01 07:55:57;;;;;;;11.20;4.47;;;;;;;;;;5090973;28;20523;-76
2023/04/01 07:58:30;;;;;;;10.95;3.83;;;;;;;;;;5087006;28;20036;-76
2023/04/01 08:00:56;;;;;;;8.15;3.60;;;;;;;;;;5076620;28;20090;-76
2023/04/01 08:03:41;;;;;;;8.40;3.78;;;;;;;;;;5083924;28;20044;-76
2023/04/01 08:06:14;;;;;;;9.45;3.22;;;;;;;;;;5074884;28;20127;-76
2023/04/01 08:08:47;;;;;;;8.90;2.97;;;;;;;;;;5074465;28;20047;-76
2023/04/01 08:11:15;;;;;;;5.32;2.60;;;;;;;;;;5082832;28;20158;-76
2023/04/01 08:13:49;;;;;;;7.47;2.80;;;;;;;;;;5094583;28;20074;-75
2023/04/01 08:16:34;;;;;;;6.40;2.70;;;;;;;;;;5094008;28;20040;-76
2023/04/01 08:19:00;;;;;;;5.30;2.78;;;;;;;;;;5084792;28;20060;-76
2023/04/01 08:21:35;;;;;;;8.18;3.40;;;;;;;;;;5078726;28;20143;-77
2023/04/01 08:24:11;;;;;;;8.82;2.83;;;;;;;;;;5091512;28;20043;-76
2023/04/01 08:26:44;;;;;;;6.57;2.80;;;;;;;;;;5094649;28;20040;-76
2023/04/01 08:29:16;;;;;;;9.57;3.35;;;;;;;;;;5091719;28;20055;-76
2023/04/01 08:31:45;;;;;;;6.30;2.90;;;;;;;;;;5086889;28;20421;-76
2023/04/01 08:34:18;;;;;;;6.32;2.85;;;;;;;;;;5076981;28;20063;-76
2023/04/01 08:36:45;;;;;;;10.27;3.58;;;;;;;;;;5083443;28;20088;-76
2023/04/01 08:39:35;;;;;;;8.80;3.65;;;;;;;;;;5095078;28;20047;-76
2023/04/01 08:42:24;;;;;;;7.88;3.42;;;;;;;;;;5072210;28;20060;-76
2023/04/01 08:44:50;;;;;;;8.90;3.65;;;;;;;;;;5077377;28;20041;-76
2023/04/01 08:47:22;;;;;;;9.70;3.47;;;;;;;;;;5079778;28;20043;-76
2023/04/01 08:50:08;;;;;;;8.43;3.33;;;;;;;;;;5092629;28;20120;-76
2023/04/01 08:52:42;;;;;;;8.40;3.67;;;;;;;;;;5093617;28;20068;-76
2023/04/01 08:55:23;;;;;;;5.55;3.08;;;;;;;;;;5089864;28;20076;-76
2023/04/01 08:57:52;;;;;;;6.93;2.63;;;;;;;;;;5075904;28;20041;-76
2023/04/01 09:00:33;;;;;;;7.18;2.92;;;;;;;;;;5079660;28;20051;-76
2023/04/01 09:02:59;;;;;;;7.95;2.85;;;;;;;;;;5080849;28;20848;-76
2023/04/01 09:05:43;;;;;;;6.95;2.75;;;;;;;;;;5085179;28;20409;-76
2023/04/01 09:08:19;;;;;;;6.20;2.75;;;;;;;;;;5091618;28;20040;-76
2023/04/01 09:10:45;;;;;;;6.50;3.10;;;;;;;;;;5092272;28;20040;-76
2023/04/01 09:13:23;;;;;;;5.40;2.95;;;;;;;;;;5085895;28;20047;-76
2023/04/01 09:15:58;;;;;;;5.55;2.70;;;;;;;;;;5086472;28;20048;-76
2023/04/01 09:18:28;;;;;;;6.70;3.00;;;;;;;;;;5085467;28;20048;-78
2023/04/01 09:21:02;;;;;;;6.07;3.08;;;;;;;;;;5114096;28;20052;-76
2023/04/01 09:23:34;;;;;;;5.18;3.58;;;;;;;;;;5106629;28;20466;-76
2023/04/01 09:26:16;;;;;;;8.02;3.50;;;;;;;;;;5093550;28;20040;-76
2023/04/01 09:28:49;;;;;;;10.38;3.85;;;;;;;;;;5092693;28;20115;-77
2023/04/01 09:31:27;;;;;;;7.45;3.75;;;;;;;;;;5089285;28;20047;-76
2023/04/01 09:34:08;;;;;;;9.77;3.80;;;;;;;;;;5079025;28;20494;-76
2023/04/01 09:36:47;;;;;;;6.72;3.63;;;;;;;;;;5075638;28;20401;-76
2023/04/01 09:39:16;;;;;;;6.07;3.20;;;;;;;;;;5093083;28;20036;-76
2023/04/01 09:42:02;;;;;;;7.18;3.05;;;;;;;;;;5078848;28;20116;-76
2023/04/01 09:44:35;;;;;;;7.25;2.95;;;;;;;;;;5072960;28;20495;-76
2023/04/01 09:47:07;;;;;;;7.53;2.85;;;;;;;;;;5085220;28;20048;-77
2023/04/01 09:49:39;;;;;;;5.45;2.92;;;;;;;;;;5091735;28;20043;-77
2023/04/01 09:52:11;;;;;;;7.20;3.25;;;;;;;;;;5075021;28;20123;-77
2023/04/01 09:55:01;;;;;;;6.18;3.33;;;;;;;;;;5078552;28;20053;-77
2023/04/01 09:57:56;;;;;;;5.78;3.30;;;;;;;;;;5047872;28;20053;-77
2023/04/01 10:00:41;;;;;;;7.50;3.25;;;;;;;;;;5050818;28;20108;-78
2023/04/01 10:03:26;;;;;;;8.57;3.88;;;;;;;;;;5039448;28;20053;-78
2023/04/01 10:05:54;;;;;;;7.07;3.38;;;;;;;;;;5054073;28;20063;-78
2023/04/01 10:08:40;;;;;;;7.75;3.50;;;;;;;;;;5052788;28;20060;-78
2023/04/01 10:11:27;;;;;;;8.25;3.22;;;;;;;;;;5044874;28;20045;-77
2023/04/01 10:14:05;;;;;;;8.23;2.80;;;;;;;;;;5051298;28;20048;-76
2023/04/01 10:16:31;;;;;;;5.22;2.50;;;;;;;;;;5051209;28;20091;-78
2023/04/01 10:19:18;;;;;;;7.47;2.80;;;;;;;;;;5050804;28;20041;-77
2023/04/01 10:21:49;;;;;;;5.30;2.83;;;;;;;;;;5034372;28;20057;-77
2023/04/01 10:24:15;;;;;;;7.63;3.08;;;;;;;;;;5051472;28;20115;-77
2023/04/01 10:26:56;;;;;;;5.55;2.47;;;;;;;;;;5074374;28;20123;-76
2023/04/01 10:29:22;;;;;;;3.55;2.40;;;;;;;;;;5054364;28;20154;-76
2023/04/01 10:32:01;;;;;;;6.22;2.80;;;;;;;;;;5054295;28;20430;-76
2023/04/01 10:34:33;;;;;;;4.88;2.88;;;;;;;;;;5075262;28;20052;-76
2023/04/01 10:37:02;;;;;;;6.18;2.95;;;;;;;;;;5094732;28;20560;-76
2023/04/01 10:39:40;;;;;;;6.72;2.97;;;;;;;;;;5096479;28;20541;-76
2023/04/01 10:42:07;;;;;;;8.10;3.45;;;;;;;;;;5094075;28;20149;-76
2023/04/01 10:44:39;;;;;;;5.70;3.17;;;;;;;;;;5083251;28;20138;-76
2023/04/01 10:47:24;;;;;;;7.30;3.40;;;;;;;;;;5096309;28;20079;-77
2023/04/01 10:50:05;;;;;;;6.95;3.58;;;;;;;;;;5095140;28;20048;-77
2023/04/01 10:52:31;;;;;;;6.78;2.92;;;;;;;;;;5077769;28;20421;-77
2023/04/01 10:55:00;;;;;;;6.43;3.00;;;;;;;;;;5076153;28;20068;-77
2023/04/01 10:57:47;;;;;;;5.40;2.70;;;;;;;;;;5076100;28;20041;-77
2023/04/01 11:00:32;;;;;;;5.13;2.80;;;;;;;;;;5079949;28;20052;-76
2023/04/01 11:02:58;;;;;;;7.20;2.63;;;;;;;;;;5076256;28;20044;-78
2023/04/01 11:05:43;;;;;;;7.93;2.60;;;;;;;;;;5074910;28;20384;-79
2023/04/01 11:08:28;;;;;;;9.35;3.22;;;;;;;;;;5077148;28;20048;-78
2023/04/01 11:11:14;;;;;;;6.32;3.03;;;;;;;;;;5076186;28;20044;-77
2023/04/01 11:13:55;;;;;;;5.53;2.78;;;;;;;;;;5076286;28;20097;-76
2023/04/01 11:16:37;;;;;;;5.72;3.13;;;;;;;;;;5075536;28;20064;-76
2023/04/01 11:19:21;;;;;;;5.78;2.58;;;;;;;;;;5075513;28;20041;-76
2023/04/01 11:22:01;;;;;;;5.35;2.50;;;;;;;;;;5091720;28;20040;-76
2023/04/01 11:24:41;;;;;;;9.45;2.80;;;;;;;;;;5087105;28;20119;-77
2023/04/01 11:27:25;;;;;;;6.95;2.90;;;;;;;;;;5095393;28;20040;-76
2023/04/01 11:30:10;;;;;;;4.88;2.65;;;;;;;;;;5095072;28;20047;-76
2023/04/01 11:32:54;;;;;;;6.30;2.60;;;;;;;;;;5095586;28;20044;-76
2023/04/01 11:35:44;;;;;;;5.85;2.53;;;;;;;;;;5087941;28;20154;-76
2023/04/01 11:38:10;;;;;;;3.75;2.88;;;;;;;;;;5082563;28;20101;-76
2023/04/01 11:40:55;;;;;;;4.95;3.25;;;;;;;;;;5095595;28;20040;-76
2023/04/01 11:43:21;;;;;;;6.25;3.33;;;;;;;;;;5095349;28;20089;-76
2023/04/01 11:45:51;;;;;;;5.38;3.15;;;;;;;;;;5095086;28;20059;-76
2023/04/01 11:48:36;;;;;;;6.35;2.85;;;;;;;;;;5093875;28;20040;-76
2023/04/01 11:51:20;;;;;;;5.25;2.83;;;;;;;;;;5108913;28;20040;-76
2023/04/01 11:53:58;;;;;;;4.38;3.08;;;;;;;;;;5093019;28;20035;-76
2023/04/01 11:56:40;;;;;;;3.58;2.72;;;;;;;;;;5094512;28;20043;-77
2023/04/01 11:59:25;;;;;;;5.78;3.03;;;;;;;;;;5094921;28;20044;-76
2023/04/01 12:02:07;;;;;;;3.72;2.70;;;;;;;;;;5093740;28;20040;-76
2023/04/01 12:04:54;;;;;;;5.80;2.72;;;;;;;;;;5095240;28;20040;-76
2023/04/01 12:07:39;;;;;;;5.88;2.80;;;;;;;;;;5090473;28;20571;-76
2023/04/01 12:10:13;;;;;;;6.53;3.05;;;;;;;;;;5074316;28;20105;-76
2023/04/01 12:12:58;;;;;;;3.67;2.58;;;;;;;;;;5079648;28;20048;-76
2023/04/01 12:15:24;;;;;;;4.05;2.50;;;;;;;;;;5073986;28;20053;-76
2023/04/01 12:18:09;;;;;;;6.13;2.55;;;;;;;;;;5074334;28;20458;-76
2023/04/01 12:20:43;;;;;;;4.63;2.70;;;;;;;;;;5093486;28;20062;-77
2023/04/01 12:23:22;;;;;;;4.35;2.63;;;;;;;;;;5094713;28;20086;-77
2023/04/01 12:25:51;;;;;;;5.65;2.70;;;;;;;;;;5094146;28;20085;-77
2023/04/01 12:28:29;;;;;;;7.72;2.65;;;;;;;;;;5094404;28;20093;-77
2023/04/01 12:31:04;;;;;;;5.95;2.70;;;;;;;;;;5093096;28;20040;-77
2023/04/01 12:33:53;;;;;;;5.68;2.60;;;;;;;;;;5094180;28;20495;-77
2023/04/01 12:36:19;;;;;;;5.32;2.78;;;;;;;;;;5094196;28;20115;-77
2023/04/01 12:38:54;;;;;;;7.15;2.80;;;;;;;;;;5094611;28;20048;-77
2023/04/01 12:41:23;;;;;;;4.28;2.50;;;;;;;;;;5093812;28;20062;-76
2023/04/01 12:43:49;;;;;;;4.10;2.70;;;;;;;;;;5094460;28;20126;-76
2023/04/01 12:46:41;;;;;;;4.90;2.80;;;;;;;;;;5088612;28;20135;-78
2023/04/01 12:49:26;;;;;;;5.60;2.75;;;;;;;;;;5085826;28;20454;-77
2023/04/01 12:51:55;;;;;;;5.82;2.80;;;;;;;;;;5086945;28;20040;-76
2023/04/01 12:54:21;;;;;;;3.75;2.40;;;;;;;;;;5091581;28;20047;-76
2023/04/01 12:56:53;;;;;;;4.60;2.40;;;;;;;;;;5081865;28;20036;-76
2023/04/01 12:59:51;;;;;;;3.97;3.00;;;;;;;;;;5090990;28;20508;-76
2023/04/01 13:06:16;;;;;;;4.10;3.00;;;;;;;;;;5072633;28;20104;-76
2023/04/01 13:12:01;;;;;;;5.30;2.80;;;;;;;;;;5087946;28;20044;-76
2023/04/01 13:18:20;;;;;;;5.32;2.90;;;;;;;;;;5085950;28;20043;-76
2023/04/01 13:20:52;;;;;;;5.93;2.80;;;;;;;;;;5080171;28;20165;-77
2023/04/01 13:23:37;;;;;;;4.78;2.65;;;;;;;;;;5094783;28;20073;-78
2023/04/01 13:26:22;;;;;;;6.70;3.53;;;;;;;;;;5094892;28;20040;-77
2023/04/01 13:31:50;;;;;;;4.40;2.80;;;;;;;;;;5050841;28;20103;-77
2023/04/01 13:34:28;;;;;;;4.57;3.05;;;;;;;;;;5050719;28;20049;-77
2023/04/01 13:37:03;;;;;;;6.43;2.50;;;;;;;;;;5052538;28;20510;-77
2023/04/01 13:39:40;;;;;;;9.10;3.00;;;;;;;;;;5052210;28;20123;-76
2023/04/01 13:42:24;;;;;;;4.53;2.63;;;;;;;;;;5029176;28;20520;-76
2023/04/01 13:48:13;;;;;;;3.03;2.30;;;;;;;;;;5001825;28;20519;-76
2023/04/01 13:50:52;;;;;;;3.25;2.40;;;;;;;;;;5008709;28;20038;-76
2023/04/01 13:53:24;;;;;;;4.45;2.55;;;;;;;;;;5012906;28;20054;-76
2023/04/01 13:56:12;;;;;;;3.22;2.53;;;;;;;;;;5015104;28;20178;-76
2023/04/01 13:58:41;;;;;;;4.97;2.35;;;;;;;;;;5015846;28;20061;-77
2023/04/01 14:01:14;;;;;;;4.63;2.70;;;;;;;;;;5016350;28;20148;-77
2023/04/01 14:03:52;;;;;;;5.20;2.60;;;;;;;;;;4983463;28;20053;-77
2023/04/01 14:06:29;;;;;;;5.53;2.70;;;;;;;;;;5014742;28;20084;-78
2023/04/01 14:09:16;;;;;;;6.07;2.65;;;;;;;;;;5042195;28;20080;-77
2023/04/01 14:12:05;;;;;;;4.82;2.70;;;;;;;;;;5051116;28;20063;-77
2023/04/01 14:14:44;;;;;;;6.68;3.17;;;;;;;;;;5041410;28;20076;-77
2023/04/01 14:17:13;;;;;;;5.60;2.97;;;;;;;;;;5051367;28;20060;-77
2023/04/01 14:19:50;;;;;;;6.78;3.20;;;;;;;;;;5052424;28;20041;-77
2023/04/01 14:22:22;;;;;;;3.45;2.90;;;;;;;;;;5052635;28;20497;-77
2023/04/01 14:24:59;;;;;;;6.32;3.05;;;;;;;;;;5076628;28;20089;-77
2023/04/01 14:27:32;;;;;;;6.43;3.58;;;;;;;;;;5089789;28;20045;-78
2023/04/01 14:30:11;;;;;;;4.95;2.88;;;;;;;;;;5095785;28;20051;-76
2023/04/01 14:32:46;;;;;;;6.25;3.35;;;;;;;;;;5095307;28;20040;-76
2023/04/01 14:35:30;;;;;;;6.40;3.70;;;;;;;;;;5086267;28;20127;-77
2023/04/01 14:37:59;;;;;;;7.53;3.20;;;;;;;;;;5097231;28;20047;-76
2023/04/01 14:40:44;;;;;;;8.00;3.85;;;;;;;;;;5096734;28;20048;-76
2023/04/01 14:43:22;;;;;;;9.27;3.72;;;;;;;;;;5085088;28;20130;-76
2023/04/01 14:46:09;;;;;;;9.50;3.70;;;;;;;;;;5096644;28;20043;-77
2023/04/01 14:48:59;;;;;;;8.02;3.85;;;;;;;;;;5086406;28;20047;-76
2023/04/01 14:51:29;;;;;;;7.45;4.38;;;;;;;;;;5064995;28;20520;-76
2023/04/01 14:54:00;;;;;;;12.50;4.40;;;;;;;;;;5096717;28;20047;-76
2023/04/01 14:56:56;;;;;;;6.75;3.85;;;;;;;;;;5075594;28;20443;-76
2023/04/01 14:59:22;;;;;;;9.00;4.30;;;;;;;;;;4994161;28;20054;-76
2023/04/01 15:01:51;;;;;;;6.57;3.67;;;;;;;;;;4994697;28;20053;-77
2023/04/01 15:04:36;;;;;;;12.05;4.07;;;;;;;;;;5013166;28;20050;-77
2023/04/01 15:07:20;;;;;;;10.90;4.45;;;;;;;;;;5013808;28;20061;-77
2023/04/01 15:09:51;;;;;;;14.20;4.75;;;;;;;;;;4997206;28;20058;-77
2023/04/01 15:12:35;;;;;;;14.07;5.68;;;;;;;;;;5013537;28;20172;-77
2023/04/01 15:15:04;;;;;;;11.70;4.82;;;;;;;;;;4993902;28;20054;-77
2023/04/01 15:17:58;;;;;;;10.40;4.50;;;;;;;;;;4994511;28;20133;-77
2023/04/01 15:20:49;;;;;;;8.60;4.65;;;;;;;;;;4994405;28;20054;-77